createdAt,value
2019-02-08T00:05:25.974Z,2.90
2019-02-08T00:07:55.746Z,2.60
2019-02-08T00:10:25.426Z,2.40
2019-02-08T00:12:55.010Z,3.30
2019-02-08T00:18:18.956Z,3.47
2019-02-08T00:20:48.480Z,3.83
2019-02-08T00:23:26.265Z,3.77
2019-02-08T00:25:54.802Z,3.30
2019-02-08T00:28:24.313Z,3.37
2019-02-08T00:31:12.975Z,4.23
2019-02-08T00:33:42.956Z,3.87
2019-02-08T00:36:12.524Z,3.63
2019-02-08T00:39:01.328Z,3.90
2019-02-08T00:41:32.443Z,3.55
2019-02-08T00:44:02.227Z,3.80
2019-02-08T00:46:31.748Z,3.50
2019-02-08T00:49:01.332Z,4.30
2019-02-08T00:51:36.697Z,3.92
2019-02-08T00:54:06.538Z,4.07
2019-02-08T00:56:36.061Z,3.97
2019-02-08T00:59:05.983Z,3.80
2019-02-08T01:01:35.859Z,4.25
2019-02-08T01:04:06.076Z,4.53
2019-02-08T01:06:37.189Z,3.60
2019-02-08T01:12:31.253Z,3.77
2019-02-08T01:17:42.540Z,5.87
2019-02-08T01:20:13.987Z,5.27
2019-02-08T01:22:43.609Z,4.67
2019-02-08T01:25:18.552Z,3.90
2019-02-08T01:27:48.856Z,5.37
2019-02-08T01:30:20.656Z,4.30
2019-02-08T01:35:50.402Z,5.20
2019-02-08T01:38:19.947Z,3.80
2019-02-08T01:40:49.475Z,4.70
2019-02-08T01:43:18.970Z,4.50
2019-02-08T01:45:48.694Z,4.10
2019-02-08T01:48:37.516Z,4.33
2019-02-08T01:51:08.567Z,4.77
2019-02-08T01:53:57.463Z,5.20
2019-02-08T01:56:26.977Z,5.20
2019-02-08T01:58:56.584Z,4.87
2019-02-08T02:04:20.249Z,4.70
2019-02-08T02:06:49.869Z,4.77
2019-02-08T02:12:08.257Z,5.62
2019-02-08T02:14:56.915Z,4.40
2019-02-08T02:17:26.417Z,4.00
2019-02-08T02:19:55.913Z,4.58
2019-02-08T02:22:25.399Z,4.47
2019-02-08T02:24:54.927Z,3.97
2019-02-08T02:30:28.240Z,4.87
2019-02-08T02:32:57.905Z,3.97
2019-02-08T02:35:33.367Z,4.37
2019-02-08T02:38:03.185Z,4.73
2019-02-08T02:40:32.742Z,4.27
2019-02-08T02:43:02.369Z,4.20
2019-02-08T02:45:34.233Z,4.80
2019-02-08T02:48:23.169Z,4.93
2019-02-08T02:50:52.695Z,4.50
2019-02-08T02:53:22.600Z,4.05
2019-02-08T02:55:52.142Z,5.50
2019-02-08T02:58:21.659Z,5.00
2019-02-08T03:00:51.155Z,3.90
2019-02-08T03:03:20.736Z,4.77
2019-02-08T03:05:50.331Z,4.03
2019-02-08T03:08:19.950Z,4.35
2019-02-08T03:10:49.572Z,5.12
2019-02-08T03:13:19.148Z,3.93
2019-02-08T03:19:02.317Z,4.23
2019-02-08T03:21:31.859Z,4.40
2019-02-08T03:24:01.348Z,4.17
2019-02-08T03:26:56.162Z,3.57
2019-02-08T03:29:25.618Z,3.93
2019-02-08T03:31:55.202Z,4.00
2019-02-08T03:34:24.972Z,4.50
2019-02-08T03:36:54.501Z,4.22
2019-02-08T03:39:24.069Z,4.00
2019-02-08T03:41:53.719Z,4.70
2019-02-08T03:44:23.191Z,4.17
2019-02-08T03:47:05.197Z,3.65
2019-02-08T03:49:34.897Z,4.40
2019-02-08T03:52:04.485Z,4.13
2019-02-08T03:54:34.009Z,3.90
2019-02-08T03:57:22.758Z,4.30
2019-02-08T03:59:52.259Z,3.93
2019-02-08T04:02:21.797Z,3.85
2019-02-08T04:04:51.357Z,3.57
2019-02-08T04:07:21.178Z,3.63
2019-02-08T04:09:50.783Z,4.37
2019-02-08T04:12:20.407Z,3.43
2019-02-08T04:14:50.174Z,3.37
2019-02-08T04:17:38.944Z,3.93
2019-02-08T04:20:09.786Z,4.17
2019-02-08T04:22:39.484Z,3.47
2019-02-08T04:25:09.648Z,3.53
2019-02-08T04:27:39.239Z,3.27
2019-02-08T04:30:22.262Z,4.33
2019-02-08T04:32:51.884Z,3.02
2019-02-08T04:35:21.463Z,3.73
2019-02-08T04:37:50.954Z,3.93
2019-02-08T04:40:20.784Z,3.47
2019-02-08T04:42:50.361Z,3.17
2019-02-08T04:45:20.147Z,4.03
2019-02-08T04:47:49.815Z,3.58
2019-02-08T04:50:21.144Z,3.03
2019-02-08T04:52:50.747Z,4.10
2019-02-08T04:55:20.538Z,3.63
2019-02-08T04:57:50.115Z,3.53
2019-02-08T05:00:38.989Z,3.13
2019-02-08T05:03:08.788Z,3.02
2019-02-08T05:05:38.396Z,3.50
2019-02-08T05:08:08.070Z,3.63
2019-02-08T05:10:37.568Z,3.40
2019-02-08T05:13:18.833Z,3.63
2019-02-08T05:16:00.874Z,3.57
2019-02-08T05:18:30.428Z,3.20
2019-02-08T05:20:59.996Z,3.07
2019-02-08T05:23:29.552Z,2.92
2019-02-08T05:25:59.098Z,3.60
2019-02-08T05:28:28.777Z,2.30
2019-02-08T05:31:17.568Z,3.73
2019-02-08T05:33:47.081Z,2.70
2019-02-08T05:36:16.687Z,2.55
2019-02-08T05:38:46.351Z,3.10
2019-02-08T05:41:15.935Z,1.90
2019-02-08T05:44:04.818Z,3.03
2019-02-08T05:46:34.425Z,1.97
2019-02-08T05:49:04.085Z,2.80
2019-02-08T05:51:33.596Z,2.62
2019-02-08T05:54:03.142Z,3.40
2019-02-08T05:56:32.630Z,2.50
2019-02-08T05:59:02.303Z,2.47
2019-02-08T06:01:32.037Z,2.77
2019-02-08T06:04:01.819Z,2.65
2019-02-08T06:06:31.388Z,3.40
2019-02-08T06:11:42.342Z,2.80
2019-02-08T06:14:11.954Z,2.40
2019-02-08T06:16:41.461Z,3.00
2019-02-08T06:19:11.012Z,3.50
2019-02-08T06:21:40.502Z,2.70
2019-02-08T06:24:10.090Z,3.23
2019-02-08T06:26:39.600Z,2.90
2019-02-08T06:29:14.995Z,4.47
2019-02-08T06:31:44.502Z,2.67
2019-02-08T06:34:14.061Z,2.80
2019-02-08T06:36:44.617Z,2.80
2019-02-08T06:39:14.121Z,2.75
2019-02-08T06:44:25.121Z,1.80
2019-02-08T06:46:54.645Z,2.70
2019-02-08T06:49:24.237Z,3.08
2019-02-08T06:52:12.869Z,2.50
2019-02-08T06:54:42.439Z,1.83
2019-02-08T06:57:31.029Z,2.40
2019-02-08T07:00:19.613Z,2.03
2019-02-08T07:03:08.136Z,2.20
2019-02-08T07:05:56.763Z,2.40
2019-02-08T07:08:32.219Z,2.62
2019-02-08T07:11:41.060Z,1.98
2019-02-08T07:14:48.965Z,1.80
2019-02-08T07:17:38.297Z,2.65
2019-02-08T07:20:27.718Z,2.23
2019-02-08T07:23:16.469Z,2.10
2019-02-08T07:26:12.207Z,1.83
2019-02-08T07:29:00.707Z,2.10
2019-02-08T07:31:49.496Z,2.05
2019-02-08T07:34:38.185Z,2.47
2019-02-08T07:37:16.018Z,1.70
2019-02-08T07:40:26.806Z,1.60
2019-02-08T07:43:15.425Z,1.87
2019-02-08T07:46:25.825Z,2.20
2019-02-08T07:49:14.893Z,2.20
2019-02-08T07:52:03.547Z,2.13
2019-02-08T07:55:12.884Z,2.10
2019-02-08T07:58:01.917Z,2.23
2019-02-08T08:04:12.661Z,1.63
2019-02-08T08:07:04.157Z,1.90
2019-02-08T08:09:40.142Z,1.87
2019-02-08T08:12:28.769Z,1.45
2019-02-08T08:18:37.895Z,1.52
2019-02-08T08:21:26.603Z,1.80
2019-02-08T08:27:17.508Z,2.00
2019-02-08T08:30:14.011Z,2.00
2019-02-08T08:33:25.507Z,1.73
2019-02-08T08:36:17.569Z,1.82
2019-02-08T08:39:13.803Z,1.67
2019-02-08T08:48:36.877Z,1.60
2019-02-08T08:51:41.785Z,1.77
2019-02-08T08:54:49.824Z,2.07
2019-02-08T08:57:57.917Z,2.10
2019-02-08T09:01:08.721Z,1.87
2019-02-08T09:04:16.791Z,1.47
2019-02-08T09:07:25.943Z,2.23
2019-02-08T09:10:32.467Z,2.07
2019-02-08T09:13:47.481Z,1.53
2019-02-08T09:16:55.622Z,2.50
2019-02-08T09:20:04.632Z,1.77
2019-02-08T09:23:12.670Z,1.50
2019-02-08T09:26:22.155Z,1.67
2019-02-08T09:29:30.278Z,1.80
2019-02-08T09:32:26.850Z,1.70
2019-02-08T09:35:34.910Z,2.37
2019-02-08T09:38:42.947Z,1.90
2019-02-08T09:42:02.993Z,2.10
2019-02-08T09:45:14.795Z,1.40
2019-02-08T09:48:42.706Z,2.23
2019-02-08T09:51:50.782Z,1.98
2019-02-08T09:54:58.840Z,3.00
2019-02-08T09:58:06.877Z,2.23
2019-02-08T10:01:14.901Z,1.95
2019-02-08T10:04:22.953Z,2.00
2019-02-08T10:07:30.973Z,2.03
2019-02-08T10:10:39.697Z,4.20
2019-02-08T10:17:11.698Z,1.83
2019-02-08T10:20:09.132Z,2.42
2019-02-08T10:23:17.420Z,2.37
2019-02-08T10:29:32.788Z,2.20
2019-02-08T10:32:40.843Z,2.40
2019-02-08T10:35:48.870Z,2.20
2019-02-08T10:38:56.958Z,1.60
2019-02-08T10:45:53.462Z,2.17
2019-02-08T10:48:49.994Z,2.63
2019-02-08T10:51:52.135Z,1.87
2019-02-08T10:55:14.810Z,1.87
2019-02-08T10:58:23.218Z,3.97
2019-02-08T11:01:31.272Z,2.52
2019-02-08T11:04:39.791Z,2.17
2019-02-08T11:07:47.859Z,2.67
2019-02-08T11:10:56.070Z,2.07
2019-02-08T11:13:55.947Z,2.30
2019-02-08T11:17:03.990Z,2.53
2019-02-08T11:19:32.323Z,2.30
2019-02-08T11:22:02.443Z,3.35
2019-02-08T11:24:31.972Z,2.87
2019-02-08T11:33:06.005Z,2.30
2019-02-08T11:35:35.617Z,2.30
2019-02-08T11:41:28.105Z,1.73
2019-02-08T11:43:57.767Z,2.43
2019-02-08T11:46:27.323Z,2.00
2019-02-08T11:48:56.809Z,2.43
2019-02-08T11:51:26.395Z,1.98
2019-02-08T11:53:55.958Z,2.20
2019-02-08T11:56:30.103Z,2.30
2019-02-08T11:59:01.947Z,2.30
2019-02-08T12:04:24.966Z,2.00
2019-02-08T12:06:54.473Z,2.10
2019-02-08T12:09:35.990Z,2.00
2019-02-08T12:12:05.582Z,1.50
2019-02-08T12:14:35.094Z,2.00
2019-02-08T12:17:04.592Z,1.77
2019-02-08T12:19:34.194Z,1.47
2019-02-08T12:22:22.940Z,2.00
2019-02-08T12:25:11.869Z,2.23
2019-02-08T12:27:41.411Z,1.97
2019-02-08T12:30:15.111Z,2.87
2019-02-08T12:35:33.685Z,2.60
2019-02-08T12:38:03.358Z,1.30
2019-02-08T12:40:32.957Z,2.03
2019-02-08T12:43:02.585Z,1.90
2019-02-08T12:45:32.289Z,2.10
2019-02-08T12:51:01.822Z,1.98
2019-02-08T12:53:31.396Z,1.50
2019-02-08T12:56:01.901Z,1.90
2019-02-08T12:58:31.445Z,2.12
2019-02-08T13:01:04.953Z,2.50
2019-02-08T13:03:36.148Z,2.37
2019-02-08T13:06:06.174Z,1.70
2019-02-08T13:08:36.778Z,3.63
2019-02-08T13:11:06.591Z,2.25
2019-02-08T13:13:55.377Z,2.83
2019-02-08T13:16:32.432Z,2.42
2019-02-08T13:21:43.012Z,2.37
2019-02-08T13:24:12.564Z,2.17
2019-02-08T13:26:42.225Z,1.93
2019-02-08T13:29:12.349Z,2.10
2019-02-08T13:31:41.867Z,2.23
2019-02-08T13:34:11.757Z,2.70
2019-02-08T13:36:41.276Z,2.90
2019-02-08T13:39:10.991Z,2.37
2019-02-08T13:41:40.995Z,2.00
2019-02-08T13:44:10.633Z,2.00
2019-02-08T13:46:40.125Z,2.33
2019-02-08T13:49:09.703Z,2.17
2019-02-08T13:51:39.336Z,2.00
2019-02-08T13:54:08.883Z,1.73
2019-02-08T13:56:38.413Z,2.03
2019-02-08T13:59:07.936Z,2.80
2019-02-08T14:01:37.491Z,1.73
2019-02-08T14:04:06.955Z,2.00
2019-02-08T14:06:36.606Z,1.73
2019-02-08T14:12:10.946Z,2.30
2019-02-08T14:14:40.567Z,2.30
2019-02-08T14:17:11.208Z,1.60
2019-02-08T14:19:40.733Z,2.20
2019-02-08T14:22:10.323Z,2.13
2019-02-08T14:24:39.910Z,1.93
2019-02-08T14:27:09.420Z,1.83
2019-02-08T14:29:40.672Z,2.60
2019-02-08T14:32:10.726Z,1.60
2019-02-08T14:34:43.604Z,2.70
2019-02-08T14:37:18.020Z,3.37
2019-02-08T14:39:48.065Z,1.75
2019-02-08T14:42:17.632Z,2.13
2019-02-08T14:44:48.160Z,2.34
2019-02-08T14:47:17.937Z,2.22
2019-02-08T14:49:48.129Z,2.17
2019-02-08T14:52:18.202Z,3.10
2019-02-08T14:54:47.730Z,2.20
2019-02-08T14:57:18.162Z,3.17
2019-02-08T14:59:48.107Z,2.15
2019-02-08T15:02:18.078Z,2.30
2019-02-08T15:04:48.358Z,2.50
2019-02-08T15:07:18.499Z,2.95
2019-02-08T15:09:48.294Z,2.57
2019-02-08T15:12:18.122Z,3.02
2019-02-08T15:14:48.153Z,2.70
2019-02-08T15:17:18.459Z,2.17
2019-02-08T15:19:48.223Z,2.60
2019-02-08T15:22:17.765Z,2.80
2019-02-08T15:31:04.523Z,3.17
2019-02-08T15:33:34.110Z,2.60
2019-02-08T15:36:03.726Z,2.73
2019-02-08T15:38:45.716Z,2.70
2019-02-08T15:41:15.220Z,3.17
2019-02-08T15:43:44.764Z,3.30
2019-02-08T15:46:14.290Z,3.13
2019-02-08T15:48:43.875Z,2.90
2019-02-08T15:51:13.449Z,2.97
2019-02-08T15:56:22.283Z,2.63
2019-02-08T15:58:52.005Z,2.87
2019-02-08T16:01:21.661Z,2.77
2019-02-08T16:03:51.240Z,2.03
2019-02-08T16:06:20.849Z,2.57
2019-02-08T16:09:09.409Z,3.00
2019-02-08T16:11:38.892Z,3.47
2019-02-08T16:14:08.499Z,3.07
2019-02-08T16:16:38.096Z,2.90
2019-02-08T16:19:19.448Z,3.17
2019-02-08T16:21:49.814Z,2.30
2019-02-08T16:24:19.878Z,2.95
2019-02-08T16:26:50.068Z,2.70
2019-02-08T16:29:20.097Z,3.00
2019-02-08T16:31:49.943Z,2.40
2019-02-08T16:34:20.149Z,3.03
2019-02-08T16:36:50.147Z,2.70
2019-02-08T16:39:31.860Z,2.17
2019-02-08T16:42:01.436Z,2.37
2019-02-08T16:44:31.270Z,2.43
2019-02-08T16:47:00.878Z,2.30
2019-02-08T16:49:30.387Z,2.87
2019-02-08T16:52:00.063Z,2.73
2019-02-08T16:54:29.850Z,3.20
2019-02-08T16:56:59.709Z,2.77
2019-02-08T16:59:34.946Z,2.23
2019-02-08T17:08:08.502Z,2.10
2019-02-08T17:10:37.965Z,2.20
2019-02-08T17:13:07.675Z,2.40
2019-02-08T17:15:37.296Z,2.43
2019-02-08T17:18:07.097Z,2.63
2019-02-08T17:20:39.467Z,2.53
2019-02-08T17:23:09.247Z,2.43
2019-02-08T17:25:38.898Z,2.27
2019-02-08T17:28:09.935Z,2.83
2019-02-08T17:30:40.037Z,1.75
2019-02-08T17:33:10.613Z,2.20
2019-02-08T17:35:40.591Z,2.60
2019-02-08T17:38:10.164Z,2.00
2019-02-08T17:40:41.889Z,3.30
2019-02-08T17:43:11.466Z,2.67
2019-02-08T17:45:41.116Z,2.80
2019-02-08T17:48:32.647Z,2.27
2019-02-08T17:51:16.122Z,2.30
2019-02-08T17:53:45.737Z,2.45
2019-02-08T17:56:17.091Z,2.83
2019-02-08T17:58:46.566Z,2.47
2019-02-08T18:01:16.301Z,2.90
2019-02-08T18:03:45.820Z,2.23
2019-02-08T18:06:15.727Z,2.27
2019-02-08T18:09:44.200Z,3.43
2019-02-08T18:12:33.053Z,2.30
2019-02-08T18:15:02.596Z,2.40
2019-02-08T18:17:32.308Z,3.10
2019-02-08T18:20:01.888Z,2.77
2019-02-08T18:22:31.421Z,2.50
2019-02-08T18:27:42.018Z,2.50
2019-02-08T18:30:13.016Z,2.70
2019-02-08T18:32:42.521Z,2.57
2019-02-08T18:35:12.222Z,2.83
2019-02-08T18:37:41.903Z,2.35
2019-02-08T18:40:33.246Z,2.83
2019-02-08T18:43:02.817Z,2.58
2019-02-08T18:45:32.589Z,2.40
2019-02-08T18:48:04.009Z,2.50
2019-02-08T18:50:36.116Z,2.47
2019-02-08T18:56:19.340Z,2.10
2019-02-08T18:59:08.335Z,2.50
2019-02-08T19:01:49.845Z,2.73
2019-02-08T19:04:48.115Z,2.40
2019-02-08T19:07:19.293Z,2.23
2019-02-08T19:09:48.769Z,2.93
2019-02-08T19:12:18.294Z,2.10
2019-02-08T19:14:47.915Z,2.92
2019-02-08T19:17:19.125Z,2.40
2019-02-08T19:22:51.262Z,3.10
2019-02-08T19:25:32.946Z,2.77
2019-02-08T19:28:02.456Z,2.40
2019-02-08T19:30:34.146Z,2.90
2019-02-08T19:33:04.502Z,2.70
2019-02-08T19:35:34.162Z,1.80
2019-02-08T19:38:22.899Z,1.87
2019-02-08T19:40:52.492Z,2.30
2019-02-08T19:43:22.237Z,2.20
2019-02-08T19:48:54.881Z,2.37
2019-02-08T19:51:25.000Z,2.40
2019-02-08T19:53:55.020Z,2.20
2019-02-08T19:56:24.964Z,2.40
2019-02-08T19:58:54.874Z,1.98
2019-02-08T20:01:25.157Z,2.17
2019-02-08T20:03:54.975Z,2.20
2019-02-08T20:06:25.183Z,2.30
2019-02-08T20:08:55.235Z,2.10
2019-02-08T20:11:25.011Z,2.90
2019-02-08T20:13:54.971Z,2.75
2019-02-08T20:16:25.058Z,1.97
2019-02-08T20:18:55.007Z,2.55
2019-02-08T20:21:25.222Z,2.12
2019-02-08T20:23:55.060Z,2.05
2019-02-08T20:26:25.116Z,2.00
2019-02-08T20:28:55.058Z,2.00
2019-02-08T20:34:19.708Z,2.53
2019-02-08T20:36:49.193Z,2.00
2019-02-08T20:39:20.255Z,1.77
2019-02-08T20:41:55.677Z,1.80
2019-02-08T20:44:25.178Z,2.40
2019-02-08T20:46:55.197Z,2.15
2019-02-08T20:49:44.565Z,1.72
2019-02-08T20:52:14.145Z,1.70
2019-02-08T20:55:02.915Z,2.03
2019-02-08T20:57:32.417Z,1.43
2019-02-08T21:03:16.001Z,2.47
2019-02-08T21:05:46.618Z,1.97
2019-02-08T21:08:17.948Z,1.80
2019-02-08T21:10:47.657Z,1.70
2019-02-08T21:13:17.356Z,1.90
2019-02-08T21:15:46.840Z,1.87
2019-02-08T21:18:16.424Z,2.00
2019-02-08T21:21:26.431Z,1.73
2019-02-08T21:23:56.145Z,2.10
2019-02-08T21:26:25.890Z,1.90
2019-02-08T21:28:57.886Z,1.40
2019-02-08T21:31:46.176Z,1.87
2019-02-08T21:36:57.310Z,1.77
2019-02-08T21:39:26.804Z,1.43
2019-02-08T21:41:56.351Z,1.67
2019-02-08T21:44:25.879Z,1.73
2019-02-08T21:46:55.455Z,1.60
2019-02-08T21:49:25.061Z,2.50
2019-02-08T21:52:13.549Z,1.67
2019-02-08T21:54:43.105Z,2.30
2019-02-08T21:57:12.592Z,1.80
2019-02-08T22:02:23.760Z,2.13
2019-02-08T22:04:53.466Z,1.87
2019-02-08T22:07:22.975Z,1.60
2019-02-08T22:10:11.464Z,2.27
2019-02-08T22:12:41.076Z,1.65
2019-02-08T22:18:02.896Z,1.90
2019-02-08T22:20:32.425Z,2.20
2019-02-08T22:23:02.001Z,2.33
2019-02-08T22:26:11.332Z,2.33
2019-02-08T22:29:00.203Z,2.15
2019-02-08T22:31:29.775Z,1.60
2019-02-08T22:33:59.398Z,1.63
2019-02-08T22:36:29.284Z,2.27
2019-02-08T22:38:59.442Z,1.90
2019-02-08T22:41:29.451Z,2.02
2019-02-08T22:43:59.335Z,2.05
2019-02-08T22:46:28.904Z,1.90
2019-02-08T22:48:58.502Z,2.47
2019-02-08T22:51:28.005Z,2.30
2019-02-08T22:53:57.532Z,2.00
2019-02-08T22:56:27.001Z,2.27
2019-02-08T22:58:59.568Z,1.65
2019-02-08T23:02:29.079Z,2.03
2019-02-08T23:04:58.533Z,1.53
2019-02-08T23:07:28.012Z,1.80
2019-02-08T23:09:57.540Z,2.03
2019-02-08T23:12:27.011Z,2.53
2019-02-08T23:14:56.503Z,1.77
2019-02-08T23:17:26.064Z,1.70
2019-02-08T23:19:55.572Z,2.13
2019-02-08T23:22:44.420Z,2.23
2019-02-08T23:25:14.017Z,1.42
2019-02-08T23:27:56.017Z,2.03
2019-02-08T23:30:25.805Z,1.80
2019-02-08T23:32:55.273Z,1.73
2019-02-08T23:35:24.836Z,1.67
2019-02-08T23:37:54.299Z,2.47
2019-02-08T23:40:23.796Z,2.20
2019-02-08T23:42:53.286Z,1.77
2019-02-08T23:45:22.927Z,1.77
2019-02-08T23:47:52.573Z,1.57
2019-02-08T23:50:41.481Z,2.30
2019-02-08T23:53:11.104Z,1.83
2019-02-08T23:55:59.914Z,1.57
2019-02-08T23:58:35.277Z,1.57
